Elmendorf Air Force Base Anchorage US
ICAO: PAED
IATA:
Category: Medium
Scheduled Services:

Elevation: 212 ft
TransAlt. 18000 ft.

Airport Communications:
ANCHORAGE APP/DEP:118.6
DENALI:134.1
ATIS:124.3
RESCUE COORD CNTR:123.1
GND:121.8
OPS:38.1
PMSV METRO:34.66
PTD:37.22
SFA:32.71
TWR:127.2

PAED Zoom In..

Runways:

(A) RW 06 length 10000 ft width 200 ft
ILS 110.30 / hdg 62

(B) RW 16 length 7493 ft width 150 ft
---- / hdg 162

(C) RW 24 length 10000 ft width 200 ft
---- / hdg 242

(D) RW 34 length 7493 ft width 150 ft
---- / hdg 342

Location; PAED
Day. 23 / Time. 09.56 Zulu
* Altimeter: 30.22
* Temperature: 14° c. 57.2°f.
* Wind from: 000° Speed 00 kn.
Dewpoint: 14° c.
Visibility: 10 Statute Miles.
Clouds: Scattered 11000 ft.
Clouds: Broken 15000 ft.

PAED 230956Z 00000KT 10SM SCT110 BKN150 14/14 A3022 RMK AO2A SLP229 T01400140 $


Wind - Calm.

 
 
jpsmedia.com for Web Design worldairports.se 2018   terms of use